San Francisco, California
Traffic Map
Current Weather Conditions
San Francisco, California
Few Clouds
Few Clouds
13°
Feels Like: 13°
Wind Chill: 13° Ceiling: Unl
Heat Index: 13° Visibility: 10mi
Dew Point: Wind: 25mph
Humidity: 67% Direction: 280° (W)
Pressure: 30.15in Gusts: 33mph
Raw Report DataKSFO 010256Z 28022G29KT 10SM FEW027 13/07 A3015 RMK AO2 PK WND 28036/0204 SLP211 T01330072 51001
Traffic Incident Summary
Active as of:
Severity:
Category:
InformationThere was an issue retrieving the traffic information for this location. Please try a different location or try again shortly.
Advertisements
Track Severe Weather on mobile